QTR3A OPKC-OTHH
Flight info
| Callsign | QTR3A |
|---|---|
| Flight time | 2h 16m |
| Altitude | 38000 |
| Route | MELOM A454 VUSET N571 MENSA DCT EGTAG Q576 RORON/N0496F340 M430 TOSNA |
| Aircraft | A35K/H-SDE2E3GHIJ3J4J5LM1ORWXY/LB1D1 |
Departure
| Time | 2026-05-06 21:15 |
|---|---|
| Airport | Jinnah International Airport (OPKC) |
Arrival
| Time | 2026-05-06 23:31 |
|---|---|
| Airport | Hamad International Airport (OTHH) |
| Time | Latitude | Longitude | Altitude | Speed | Heading |
|---|---|---|---|---|---|
| 2026-05-06 20:30 | 24.90278 | 67.17012 | 107 ft | 0 kts | 246° |
| 2026-05-06 20:58 | 24.90284 | 67.17025 | 107 ft | 4 kts | 244° |
| 2026-05-06 20:58 | 24.90295 | 67.17052 | 106 ft | 4 kts | 254° |
| 2026-05-06 20:59 | 24.90299 | 67.17078 | 105 ft | 4 kts | 278° |
| 2026-05-06 20:59 | 24.90288 | 67.17100 | 104 ft | 4 kts | 333° |
| 2026-05-06 20:59 | 24.90262 | 67.17108 | 105 ft | 4 kts | 351° |
| 2026-05-06 20:59 | 24.90253 | 67.17110 | 105 ft | 0 kts | 351° |
| 2026-05-06 21:03 | 24.90254 | 67.17110 | 107 ft | 2 kts | 351° |
| 2026-05-06 21:04 | 24.90283 | 67.17104 | 107 ft | 6 kts | 349° |
| 2026-05-06 21:04 | 24.90332 | 67.17091 | 107 ft | 9 kts | 345° |
| 2026-05-06 21:04 | 24.90398 | 67.17071 | 107 ft | 11 kts | 343° |
| 2026-05-06 21:04 | 24.90474 | 67.17047 | 107 ft | 9 kts | 344° |
| 2026-05-06 21:05 | 24.90511 | 67.17035 | 107 ft | 0 kts | 345° |
| 2026-05-06 21:05 | 24.90519 | 67.17033 | 107 ft | 2 kts | 348° |
| 2026-05-06 21:06 | 24.90539 | 67.17038 | 108 ft | 3 kts | 23° |
| 2026-05-06 21:06 | 24.90561 | 67.17060 | 108 ft | 5 kts | 51° |
| 2026-05-06 21:06 | 24.90579 | 67.17103 | 108 ft | 7 kts | 73° |
| 2026-05-06 21:06 | 24.90581 | 67.17109 | 108 ft | 0 kts | 73° |
| 2026-05-06 21:08 | 24.90581 | 67.17110 | 108 ft | 1 kts | 73° |
| 2026-05-06 21:09 | 24.90585 | 67.17126 | 107 ft | 4 kts | 73° |
| 2026-05-06 21:09 | 24.90595 | 67.17164 | 108 ft | 7 kts | 74° |
| 2026-05-06 21:09 | 24.90610 | 67.17223 | 108 ft | 10 kts | 74° |
| 2026-05-06 21:09 | 24.90630 | 67.17304 | 107 ft | 12 kts | 75° |
| 2026-05-06 21:10 | 24.90655 | 67.17400 | 108 ft | 13 kts | 74° |
| 2026-05-06 21:10 | 24.90690 | 67.17490 | 108 ft | 13 kts | 54° |
| 2026-05-06 21:10 | 24.90753 | 67.17566 | 108 ft | 14 kts | 45° |
| 2026-05-06 21:10 | 24.90826 | 67.17644 | 108 ft | 16 kts | 44° |
| 2026-05-06 21:11 | 24.90914 | 67.17737 | 107 ft | 18 kts | 44° |
| 2026-05-06 21:11 | 24.91005 | 67.17835 | 107 ft | 18 kts | 44° |
| 2026-05-06 21:11 | 24.91073 | 67.17899 | 107 ft | 12 kts | 26° |
| 2026-05-06 21:11 | 24.91145 | 67.17899 | 108 ft | 9 kts | 346° |
| 2026-05-06 21:12 | 24.91169 | 67.17883 | 109 ft | 0 kts | 319° |
| 2026-05-06 21:12 | 24.91179 | 67.17867 | 109 ft | 5 kts | 302° |
| 2026-05-06 21:12 | 24.91193 | 67.17834 | 108 ft | 5 kts | 291° |
| 2026-05-06 21:12 | 24.91207 | 67.17791 | 109 ft | 7 kts | 290° |
| 2026-05-06 21:13 | 24.91218 | 67.17747 | 107 ft | 4 kts | 279° |
| 2026-05-06 21:13 | 24.91218 | 67.17712 | 109 ft | 5 kts | 264° |
| 2026-05-06 21:13 | 24.91215 | 67.17696 | 107 ft | 0 kts | 257° |
| 2026-05-06 21:14 | 24.91204 | 67.17646 | 109 ft | 26 kts | 256° |
| 2026-05-06 21:14 | 24.91082 | 67.17177 | 113 ft | 99 kts | 253° |
| 2026-05-06 21:14 | 24.90840 | 67.16214 | 110 ft | 160 kts | 255° |
| 2026-05-06 21:15 | 24.90521 | 67.15032 | 798 ft | 158 kts | 253° |
| 2026-05-06 21:15 | 24.90151 | 67.13902 | 1428 ft | 158 kts | 242° |
| 2026-05-06 21:15 | 24.89367 | 67.13056 | 1992 ft | 160 kts | 224° |
| 2026-05-06 21:15 | 24.88535 | 67.12241 | 2408 ft | 161 kts | 228° |
| 2026-05-06 21:16 | 24.87739 | 67.11351 | 2881 ft | 163 kts | 231° |
| 2026-05-06 21:16 | 24.86967 | 67.10432 | 3378 ft | 169 kts | 231° |
| 2026-05-06 21:16 | 24.86156 | 67.09418 | 3684 ft | 185 kts | 232° |
| 2026-05-06 21:16 | 24.85300 | 67.08282 | 4055 ft | 200 kts | 233° |
| 2026-05-06 21:17 | 24.84375 | 67.07065 | 4463 ft | 215 kts | 230° |
| 2026-05-06 21:17 | 24.83319 | 67.05801 | 4813 ft | 233 kts | 228° |
| 2026-05-06 21:17 | 24.82139 | 67.04490 | 5251 ft | 248 kts | 226° |
| 2026-05-06 21:17 | 24.80859 | 67.03143 | 5766 ft | 258 kts | 225° |
| 2026-05-06 21:18 | 24.79603 | 67.01739 | 6514 ft | 257 kts | 229° |
| 2026-05-06 21:18 | 24.78464 | 67.00209 | 7187 ft | 259 kts | 240° |
| 2026-05-06 21:18 | 24.77944 | 66.98312 | 7714 ft | 264 kts | 272° |
| 2026-05-06 21:18 | 24.78170 | 66.96273 | 8202 ft | 277 kts | 281° |
| 2026-05-06 21:19 | 24.78478 | 66.94131 | 8744 ft | 287 kts | 280° |
| 2026-05-06 21:19 | 24.78732 | 66.91974 | 9565 ft | 289 kts | 279° |
| 2026-05-06 21:19 | 24.78971 | 66.89760 | 10202 ft | 298 kts | 279° |
| 2026-05-06 21:19 | 24.79222 | 66.87418 | 10526 ft | 318 kts | 279° |
| 2026-05-06 21:20 | 24.79488 | 66.84934 | 10827 ft | 336 kts | 279° |
| 2026-05-06 21:20 | 24.79825 | 66.82290 | 11121 ft | 351 kts | 284° |
| 2026-05-06 21:20 | 24.80680 | 66.79765 | 11617 ft | 354 kts | 302° |
| 2026-05-06 21:20 | 24.82203 | 66.77642 | 12271 ft | 355 kts | 316° |
| 2026-05-06 21:21 | 24.83978 | 66.75743 | 12948 ft | 357 kts | 318° |
| 2026-05-06 21:21 | 24.85766 | 66.73888 | 13636 ft | 359 kts | 318° |
| 2026-05-06 21:21 | 24.87591 | 66.71986 | 14203 ft | 363 kts | 318° |
| 2026-05-06 21:21 | 24.89433 | 66.70057 | 14777 ft | 367 kts | 318° |
| 2026-05-06 21:22 | 24.91288 | 66.68108 | 15351 ft | 370 kts | 318° |
| 2026-05-06 21:22 | 24.93158 | 66.66138 | 15931 ft | 374 kts | 318° |
| 2026-05-06 21:22 | 24.95045 | 66.64148 | 16488 ft | 377 kts | 319° |
| 2026-05-06 21:22 | 24.96948 | 66.62139 | 17062 ft | 380 kts | 319° |
| 2026-05-06 21:23 | 24.98866 | 66.60113 | 17623 ft | 384 kts | 319° |
| 2026-05-06 21:23 | 25.00803 | 66.58066 | 18153 ft | 387 kts | 319° |
| 2026-05-06 21:23 | 25.02748 | 66.55997 | 18628 ft | 391 kts | 317° |
| 2026-05-06 21:23 | 25.04553 | 66.53733 | 19128 ft | 396 kts | 309° |
| 2026-05-06 21:24 | 25.05984 | 66.51122 | 19668 ft | 401 kts | 298° |
| 2026-05-06 21:24 | 25.06971 | 66.48232 | 20231 ft | 405 kts | 290° |
| 2026-05-06 21:24 | 25.07743 | 66.45236 | 20769 ft | 407 kts | 287° |
| 2026-05-06 21:24 | 25.08420 | 66.42193 | 21307 ft | 410 kts | 286° |
| 2026-05-06 21:25 | 25.09060 | 66.39123 | 21823 ft | 412 kts | 285° |
| 2026-05-06 21:25 | 25.09696 | 66.36040 | 22338 ft | 413 kts | 285° |
| 2026-05-06 21:25 | 25.10344 | 66.32944 | 22858 ft | 415 kts | 286° |
| 2026-05-06 21:25 | 25.11008 | 66.29839 | 23345 ft | 417 kts | 286° |
| 2026-05-06 21:26 | 25.11685 | 66.26721 | 23745 ft | 419 kts | 286° |
| 2026-05-06 21:26 | 25.12371 | 66.23593 | 24167 ft | 420 kts | 287° |
| 2026-05-06 21:26 | 25.13060 | 66.20463 | 24633 ft | 420 kts | 287° |
| 2026-05-06 21:26 | 25.13753 | 66.17323 | 25094 ft | 422 kts | 287° |
| 2026-05-06 21:27 | 25.14447 | 66.14173 | 25582 ft | 423 kts | 287° |
| 2026-05-06 21:27 | 25.15142 | 66.11016 | 26091 ft | 424 kts | 287° |
| 2026-05-06 21:27 | 25.15838 | 66.07847 | 26609 ft | 426 kts | 287° |
| 2026-05-06 21:27 | 25.16535 | 66.04665 | 27122 ft | 427 kts | 287° |
| 2026-05-06 21:28 | 25.17234 | 66.01472 | 27638 ft | 429 kts | 287° |
| 2026-05-06 21:28 | 25.17925 | 65.98312 | 28136 ft | 430 kts | 287° |
| 2026-05-06 21:28 | 25.18637 | 65.95050 | 28632 ft | 432 kts | 287° |
| 2026-05-06 21:28 | 25.19332 | 65.91863 | 29079 ft | 434 kts | 286° |
| 2026-05-06 21:29 | 25.20042 | 65.88608 | 29493 ft | 437 kts | 286° |
| 2026-05-06 21:29 | 25.20754 | 65.85338 | 29911 ft | 439 kts | 286° |
| 2026-05-06 21:29 | 25.21468 | 65.82049 | 30265 ft | 442 kts | 286° |
| 2026-05-06 21:29 | 25.22186 | 65.78742 | 30595 ft | 444 kts | 286° |
| 2026-05-06 21:30 | 25.22907 | 65.75418 | 30923 ft | 446 kts | 286° |
| 2026-05-06 21:30 | 25.23640 | 65.72032 | 31254 ft | 449 kts | 286° |
| 2026-05-06 21:30 | 25.24367 | 65.68670 | 31579 ft | 451 kts | 286° |
| 2026-05-06 21:30 | 25.25096 | 65.65297 | 31886 ft | 453 kts | 285° |
| 2026-05-06 21:31 | 25.25827 | 65.61909 | 32178 ft | 455 kts | 285° |
| 2026-05-06 21:31 | 25.26563 | 65.58493 | 32414 ft | 458 kts | 285° |
| 2026-05-06 21:31 | 25.27303 | 65.55061 | 32714 ft | 459 kts | 285° |
| 2026-05-06 21:31 | 25.28038 | 65.51637 | 33154 ft | 457 kts | 285° |
| 2026-05-06 21:32 | 25.28771 | 65.48223 | 33594 ft | 455 kts | 285° |
| 2026-05-06 21:32 | 25.30226 | 65.41430 | 34296 ft | 454 kts | 285° |
| 2026-05-06 21:32 | 25.30951 | 65.38041 | 34671 ft | 452 kts | 285° |
| 2026-05-06 21:33 | 25.31672 | 65.34675 | 35059 ft | 450 kts | 285° |
| 2026-05-06 21:33 | 25.32390 | 65.31314 | 35383 ft | 449 kts | 284° |
| 2026-05-06 21:33 | 25.33105 | 65.27960 | 35639 ft | 449 kts | 284° |
| 2026-05-06 21:33 | 25.33821 | 65.24595 | 35871 ft | 450 kts | 284° |
| 2026-05-06 21:34 | 25.34537 | 65.21231 | 36209 ft | 449 kts | 284° |
| 2026-05-06 21:34 | 25.35255 | 65.17871 | 36529 ft | 449 kts | 284° |
| 2026-05-06 21:34 | 25.35966 | 65.14519 | 36827 ft | 448 kts | 283° |
| 2026-05-06 21:34 | 25.36673 | 65.11173 | 37132 ft | 447 kts | 283° |
| 2026-05-06 21:35 | 25.37378 | 65.07829 | 37404 ft | 446 kts | 283° |
| 2026-05-06 21:35 | 25.38081 | 65.04493 | 37651 ft | 446 kts | 283° |
| 2026-05-06 21:35 | 25.39493 | 64.97797 | 37748 ft | 447 kts | 283° |
| 2026-05-06 21:36 | 25.40892 | 64.91073 | 37745 ft | 450 kts | 281° |
| 2026-05-06 21:36 | 25.41337 | 64.84176 | 37753 ft | 452 kts | 267° |
| 2026-05-06 21:37 | 25.40096 | 64.77354 | 37750 ft | 455 kts | 257° |
| 2026-05-06 21:37 | 25.38261 | 64.70643 | 37749 ft | 456 kts | 255° |
| 2026-05-06 21:38 | 25.36658 | 64.65041 | 37750 ft | 456 kts | 255° |
| 2026-05-06 21:38 | 25.34761 | 64.58350 | 37746 ft | 456 kts | 255° |
| 2026-05-06 21:39 | 25.32885 | 64.51648 | 37749 ft | 456 kts | 255° |
| 2026-05-06 21:39 | 25.31028 | 64.44994 | 37746 ft | 456 kts | 255° |
| 2026-05-06 21:40 | 25.29155 | 64.38295 | 37748 ft | 456 kts | 255° |
| 2026-05-06 21:40 | 25.27278 | 64.31597 | 37740 ft | 457 kts | 255° |
| 2026-05-06 21:41 | 25.25396 | 64.24895 | 37741 ft | 457 kts | 255° |
| 2026-05-06 21:41 | 25.23510 | 64.18193 | 37741 ft | 457 kts | 255° |
| 2026-05-06 21:42 | 25.21620 | 64.11493 | 37744 ft | 457 kts | 255° |
| 2026-05-06 21:42 | 25.19728 | 64.04797 | 37731 ft | 457 kts | 255° |
| 2026-05-06 21:43 | 25.17832 | 63.98095 | 37738 ft | 457 kts | 255° |
| 2026-05-06 21:43 | 25.15931 | 63.91394 | 37738 ft | 457 kts | 255° |
| 2026-05-06 21:44 | 25.14027 | 63.84695 | 37741 ft | 457 kts | 255° |
| 2026-05-06 21:44 | 25.12121 | 63.77998 | 37741 ft | 457 kts | 255° |
| 2026-05-06 21:45 | 25.10211 | 63.71300 | 37740 ft | 458 kts | 254° |
| 2026-05-06 21:45 | 25.08298 | 63.64606 | 37742 ft | 458 kts | 254° |
| 2026-05-06 21:46 | 25.06382 | 63.57914 | 37741 ft | 457 kts | 254° |
| 2026-05-06 21:46 | 25.04464 | 63.51226 | 37741 ft | 457 kts | 254° |
| 2026-05-06 21:47 | 25.02543 | 63.44542 | 37741 ft | 457 kts | 254° |
| 2026-05-06 21:47 | 25.00618 | 63.37857 | 37741 ft | 458 kts | 254° |
| 2026-05-06 21:48 | 24.98690 | 63.31172 | 37743 ft | 458 kts | 254° |
| 2026-05-06 21:48 | 24.96759 | 63.24490 | 37746 ft | 458 kts | 254° |
| 2026-05-06 21:49 | 24.94825 | 63.17810 | 37746 ft | 458 kts | 254° |
| 2026-05-06 21:49 | 24.92888 | 63.11130 | 37745 ft | 458 kts | 254° |
| 2026-05-06 21:50 | 24.90946 | 63.04447 | 37744 ft | 458 kts | 254° |
| 2026-05-06 21:50 | 24.89000 | 62.97765 | 37743 ft | 458 kts | 254° |
| 2026-05-06 21:51 | 24.87052 | 62.91086 | 37746 ft | 458 kts | 254° |
| 2026-05-06 21:51 | 24.85099 | 62.84404 | 37746 ft | 458 kts | 254° |
| 2026-05-06 21:52 | 24.83145 | 62.77727 | 37746 ft | 458 kts | 253° |
| 2026-05-06 21:52 | 24.81188 | 62.71056 | 37749 ft | 458 kts | 253° |
| 2026-05-06 21:53 | 24.79229 | 62.64386 | 37746 ft | 458 kts | 253° |
| 2026-05-06 21:53 | 24.77264 | 62.57711 | 37751 ft | 459 kts | 253° |
| 2026-05-06 21:54 | 24.75292 | 62.51022 | 37745 ft | 460 kts | 253° |
| 2026-05-06 21:54 | 24.73314 | 62.44329 | 37748 ft | 460 kts | 253° |
| 2026-05-06 21:55 | 24.71331 | 62.37633 | 37748 ft | 460 kts | 253° |
| 2026-05-06 21:55 | 24.69346 | 62.30935 | 37750 ft | 460 kts | 253° |
| 2026-05-06 21:56 | 24.67357 | 62.24242 | 37749 ft | 460 kts | 253° |
| 2026-05-06 21:56 | 24.65366 | 62.17550 | 37749 ft | 461 kts | 253° |
| 2026-05-06 21:57 | 24.63369 | 62.10851 | 37752 ft | 461 kts | 253° |
| 2026-05-06 21:57 | 24.61368 | 62.04150 | 37752 ft | 461 kts | 253° |
| 2026-05-06 21:58 | 24.59365 | 61.97455 | 37751 ft | 461 kts | 253° |
| 2026-05-06 21:58 | 24.57357 | 61.90757 | 37751 ft | 461 kts | 253° |
| 2026-05-06 21:59 | 24.55348 | 61.84063 | 37754 ft | 461 kts | 253° |
| 2026-05-06 21:59 | 24.53335 | 61.77371 | 37754 ft | 461 kts | 253° |
| 2026-05-06 22:00 | 24.51320 | 61.70686 | 37756 ft | 461 kts | 253° |
| 2026-05-06 22:00 | 24.49302 | 61.64001 | 37755 ft | 461 kts | 253° |
| 2026-05-06 22:01 | 24.47282 | 61.57320 | 37755 ft | 461 kts | 253° |
| 2026-05-06 22:01 | 24.45257 | 61.50638 | 37755 ft | 461 kts | 253° |
| 2026-05-06 22:02 | 24.43229 | 61.43954 | 37759 ft | 461 kts | 253° |
| 2026-05-06 22:02 | 24.41200 | 61.37279 | 37757 ft | 461 kts | 253° |
| 2026-05-06 22:03 | 24.39435 | 61.30521 | 37758 ft | 460 kts | 257° |
| 2026-05-06 22:03 | 24.37975 | 61.23684 | 37761 ft | 460 kts | 258° |
| 2026-05-06 22:04 | 24.36560 | 61.16833 | 37760 ft | 460 kts | 258° |
| 2026-05-06 22:04 | 24.35143 | 61.09985 | 37759 ft | 460 kts | 258° |
| 2026-05-06 22:05 | 24.33717 | 61.03140 | 37763 ft | 460 kts | 257° |
| 2026-05-06 22:05 | 24.32280 | 60.96281 | 37760 ft | 462 kts | 257° |
| 2026-05-06 22:06 | 24.30838 | 60.89415 | 37764 ft | 462 kts | 257° |
| 2026-05-06 22:06 | 24.29393 | 60.82549 | 37766 ft | 462 kts | 257° |
| 2026-05-06 22:07 | 24.27945 | 60.75685 | 37766 ft | 462 kts | 257° |
| 2026-05-06 22:07 | 24.26491 | 60.68812 | 37749 ft | 464 kts | 257° |
| 2026-05-06 22:08 | 24.25031 | 60.61923 | 37767 ft | 464 kts | 257° |
| 2026-05-06 22:08 | 24.23578 | 60.55079 | 37766 ft | 464 kts | 257° |
| 2026-05-06 22:09 | 24.22111 | 60.48193 | 37762 ft | 464 kts | 257° |
| 2026-05-06 22:09 | 24.20641 | 60.41302 | 37762 ft | 465 kts | 257° |
| 2026-05-06 22:10 | 24.19168 | 60.34415 | 37759 ft | 465 kts | 257° |
| 2026-05-06 22:10 | 24.17690 | 60.27527 | 37756 ft | 465 kts | 257° |
| 2026-05-06 22:11 | 24.16209 | 60.20635 | 37758 ft | 465 kts | 257° |
| 2026-05-06 22:11 | 24.14726 | 60.13750 | 37752 ft | 465 kts | 257° |
| 2026-05-06 22:12 | 24.13238 | 60.06858 | 37753 ft | 465 kts | 257° |
| 2026-05-06 22:12 | 24.11745 | 59.99962 | 37759 ft | 465 kts | 256° |
| 2026-05-06 22:13 | 24.10251 | 59.93073 | 37743 ft | 465 kts | 256° |
| 2026-05-06 22:13 | 24.08753 | 59.86182 | 37751 ft | 465 kts | 256° |
| 2026-05-06 22:14 | 24.07250 | 59.79286 | 37761 ft | 466 kts | 256° |
| 2026-05-06 22:14 | 24.05745 | 59.72398 | 37760 ft | 466 kts | 256° |
| 2026-05-06 22:15 | 24.04236 | 59.65505 | 37752 ft | 466 kts | 256° |
| 2026-05-06 22:15 | 24.02724 | 59.58613 | 37749 ft | 466 kts | 256° |
| 2026-05-06 22:16 | 24.01210 | 59.51728 | 37744 ft | 466 kts | 256° |
| 2026-05-06 22:16 | 23.99693 | 59.44846 | 37758 ft | 465 kts | 256° |
| 2026-05-06 22:17 | 23.98172 | 59.37964 | 37743 ft | 465 kts | 256° |
| 2026-05-06 22:17 | 23.96650 | 59.31087 | 37753 ft | 465 kts | 256° |
| 2026-05-06 22:18 | 23.95123 | 59.24209 | 37756 ft | 466 kts | 256° |
| 2026-05-06 22:18 | 23.94006 | 59.17243 | 37746 ft | 466 kts | 266° |
| 2026-05-06 22:19 | 23.94391 | 59.11370 | 37752 ft | 469 kts | 280° |
| 2026-05-06 22:19 | 23.96565 | 59.04633 | 37758 ft | 473 kts | 291° |
| 2026-05-06 22:20 | 23.99346 | 58.98105 | 37749 ft | 474 kts | 293° |
| 2026-05-06 22:20 | 24.02194 | 58.91597 | 37757 ft | 474 kts | 293° |
| 2026-05-06 22:21 | 24.05001 | 58.85095 | 37761 ft | 472 kts | 292° |
| 2026-05-06 22:21 | 24.07780 | 58.78582 | 37759 ft | 472 kts | 292° |
| 2026-05-06 22:22 | 24.10549 | 58.72066 | 37759 ft | 472 kts | 292° |
| 2026-05-06 22:22 | 24.13317 | 58.65547 | 37757 ft | 472 kts | 292° |
| 2026-05-06 22:23 | 24.16108 | 58.58978 | 37761 ft | 472 kts | 292° |
| 2026-05-06 22:23 | 24.18851 | 58.52499 | 37768 ft | 472 kts | 292° |
| 2026-05-06 22:24 | 24.21626 | 58.45942 | 37757 ft | 471 kts | 292° |
| 2026-05-06 22:24 | 24.24378 | 58.39430 | 37760 ft | 471 kts | 292° |
| 2026-05-06 22:25 | 24.27127 | 58.32917 | 37768 ft | 471 kts | 292° |
| 2026-05-06 22:25 | 24.29873 | 58.26400 | 37768 ft | 471 kts | 292° |
| 2026-05-06 22:26 | 24.32615 | 58.19885 | 37770 ft | 471 kts | 292° |
| 2026-05-06 22:26 | 24.35356 | 58.13362 | 37766 ft | 471 kts | 292° |
| 2026-05-06 22:27 | 24.38093 | 58.06838 | 37754 ft | 470 kts | 292° |
| 2026-05-06 22:27 | 24.40822 | 58.00328 | 37760 ft | 469 kts | 292° |
| 2026-05-06 22:28 | 24.43544 | 57.93822 | 37757 ft | 469 kts | 292° |
| 2026-05-06 22:28 | 24.46263 | 57.87314 | 37751 ft | 469 kts | 292° |
| 2026-05-06 22:29 | 24.48983 | 57.80793 | 37754 ft | 470 kts | 292° |
| 2026-05-06 22:29 | 24.51657 | 57.74254 | 37754 ft | 469 kts | 290° |
| 2026-05-06 22:30 | 24.54146 | 57.67638 | 37752 ft | 469 kts | 289° |
| 2026-05-06 22:30 | 24.56609 | 57.61008 | 37757 ft | 469 kts | 290° |
| 2026-05-06 22:31 | 24.59097 | 57.54386 | 37759 ft | 469 kts | 290° |
| 2026-05-06 22:31 | 24.61600 | 57.47764 | 37757 ft | 469 kts | 290° |
| 2026-05-06 22:32 | 24.64104 | 57.41140 | 37756 ft | 469 kts | 290° |
| 2026-05-06 22:32 | 24.66604 | 57.34516 | 37755 ft | 469 kts | 290° |
| 2026-05-06 22:33 | 24.69107 | 57.27883 | 37754 ft | 470 kts | 290° |
| 2026-05-06 22:33 | 24.71597 | 57.21253 | 37757 ft | 468 kts | 290° |
| 2026-05-06 22:34 | 24.74077 | 57.14639 | 37756 ft | 467 kts | 290° |
| 2026-05-06 22:34 | 24.76553 | 57.08028 | 37756 ft | 467 kts | 290° |
| 2026-05-06 22:35 | 24.79028 | 57.01414 | 37757 ft | 468 kts | 290° |
| 2026-05-06 22:35 | 24.81501 | 56.94793 | 37764 ft | 468 kts | 289° |
| 2026-05-06 22:36 | 24.83971 | 56.88172 | 37755 ft | 468 kts | 289° |
| 2026-05-06 22:36 | 24.86438 | 56.81547 | 37764 ft | 467 kts | 289° |
| 2026-05-06 22:37 | 24.88892 | 56.74949 | 37755 ft | 465 kts | 289° |
| 2026-05-06 22:37 | 24.91338 | 56.68359 | 37760 ft | 465 kts | 289° |
| 2026-05-06 22:38 | 24.93780 | 56.61769 | 37770 ft | 465 kts | 289° |
| 2026-05-06 22:38 | 24.96046 | 56.55115 | 37769 ft | 462 kts | 283° |
| 2026-05-06 22:39 | 24.97212 | 56.48177 | 37776 ft | 460 kts | 276° |
| 2026-05-06 22:39 | 24.98072 | 56.41190 | 37778 ft | 460 kts | 275° |
| 2026-05-06 22:40 | 24.98882 | 56.34194 | 37776 ft | 460 kts | 275° |
| 2026-05-06 22:40 | 24.99701 | 56.27205 | 37776 ft | 459 kts | 276° |
| 2026-05-06 22:41 | 25.00944 | 56.16751 | 37794 ft | 459 kts | 276° |
| 2026-05-06 22:42 | 25.01769 | 56.09783 | 37800 ft | 459 kts | 276° |
| 2026-05-06 22:42 | 25.02603 | 56.02714 | 37802 ft | 458 kts | 276° |
| 2026-05-06 22:43 | 25.03420 | 55.95747 | 37808 ft | 458 kts | 276° |
| 2026-05-06 22:43 | 25.04250 | 55.88638 | 37810 ft | 458 kts | 275° |
| 2026-05-06 22:44 | 25.05061 | 55.81669 | 37813 ft | 458 kts | 275° |
| 2026-05-06 22:44 | 25.05865 | 55.74736 | 37807 ft | 459 kts | 275° |
| 2026-05-06 22:45 | 25.06671 | 55.67748 | 37806 ft | 459 kts | 275° |
| 2026-05-06 22:45 | 25.07475 | 55.60765 | 37798 ft | 458 kts | 275° |
| 2026-05-06 22:46 | 25.08271 | 55.53815 | 37792 ft | 456 kts | 275° |
| 2026-05-06 22:46 | 25.09061 | 55.46877 | 37785 ft | 456 kts | 275° |
| 2026-05-06 22:47 | 25.09849 | 55.39930 | 37781 ft | 457 kts | 275° |
| 2026-05-06 22:47 | 25.10635 | 55.32978 | 37780 ft | 457 kts | 275° |
| 2026-05-06 22:48 | 25.11417 | 55.26029 | 37795 ft | 457 kts | 275° |
| 2026-05-06 22:48 | 25.12197 | 55.19074 | 37791 ft | 457 kts | 275° |
| 2026-05-06 22:49 | 25.12975 | 55.12104 | 37788 ft | 457 kts | 275° |
| 2026-05-06 22:49 | 25.13749 | 55.05139 | 37791 ft | 457 kts | 275° |
| 2026-05-06 22:50 | 25.14516 | 54.98169 | 37786 ft | 457 kts | 275° |
| 2026-05-06 22:50 | 25.14488 | 54.91199 | 37786 ft | 453 kts | 264° |
| 2026-05-06 22:51 | 25.13833 | 54.84294 | 37783 ft | 452 kts | 262° |
| 2026-05-06 22:51 | 25.13206 | 54.78572 | 37779 ft | 452 kts | 262° |
| 2026-05-06 22:52 | 25.12445 | 54.71687 | 37789 ft | 452 kts | 262° |
| 2026-05-06 22:52 | 25.11697 | 54.64804 | 37788 ft | 451 kts | 262° |
| 2026-05-06 22:53 | 25.10955 | 54.57927 | 37782 ft | 451 kts | 262° |
| 2026-05-06 22:53 | 25.10529 | 54.51021 | 37789 ft | 453 kts | 271° |
| 2026-05-06 22:54 | 25.11265 | 54.44102 | 37788 ft | 455 kts | 276° |
| 2026-05-06 22:54 | 25.12270 | 54.37202 | 37787 ft | 456 kts | 277° |
| 2026-05-06 22:55 | 25.13309 | 54.30306 | 37788 ft | 456 kts | 277° |
| 2026-05-06 22:55 | 25.14328 | 54.23407 | 37787 ft | 455 kts | 276° |
| 2026-05-06 22:56 | 25.15330 | 54.16499 | 37796 ft | 456 kts | 276° |
| 2026-05-06 22:56 | 25.16332 | 54.09588 | 37793 ft | 456 kts | 276° |
| 2026-05-06 22:56 | 25.16830 | 54.06138 | 37654 ft | 454 kts | 276° |
| 2026-05-06 22:57 | 25.17323 | 54.02707 | 36995 ft | 452 kts | 276° |
| 2026-05-06 22:57 | 25.17815 | 53.99286 | 36294 ft | 451 kts | 276° |
| 2026-05-06 22:57 | 25.18305 | 53.95867 | 35642 ft | 450 kts | 276° |
| 2026-05-06 22:57 | 25.18793 | 53.92459 | 34980 ft | 449 kts | 276° |
| 2026-05-06 22:58 | 25.19281 | 53.89052 | 34268 ft | 450 kts | 276° |
| 2026-05-06 22:58 | 25.19769 | 53.85632 | 33478 ft | 452 kts | 276° |
| 2026-05-06 22:58 | 25.20258 | 53.82201 | 32671 ft | 453 kts | 277° |
| 2026-05-06 22:58 | 25.20793 | 53.78792 | 32138 ft | 449 kts | 280° |
| 2026-05-06 22:59 | 25.21486 | 53.75449 | 31617 ft | 444 kts | 281° |
| 2026-05-06 22:59 | 25.22204 | 53.72149 | 31102 ft | 440 kts | 281° |
| 2026-05-06 22:59 | 25.22932 | 53.68880 | 30555 ft | 437 kts | 281° |
| 2026-05-06 22:59 | 25.23660 | 53.65641 | 30027 ft | 433 kts | 281° |
| 2026-05-06 23:00 | 25.24386 | 53.62421 | 29445 ft | 430 kts | 281° |
| 2026-05-06 23:00 | 25.25093 | 53.59277 | 28910 ft | 425 kts | 281° |
| 2026-05-06 23:00 | 25.25799 | 53.56130 | 28414 ft | 420 kts | 281° |
| 2026-05-06 23:00 | 25.26495 | 53.53016 | 27919 ft | 416 kts | 281° |
| 2026-05-06 23:01 | 25.27185 | 53.49922 | 27410 ft | 414 kts | 281° |
| 2026-05-06 23:01 | 25.27872 | 53.46836 | 26931 ft | 413 kts | 282° |
| 2026-05-06 23:01 | 25.28557 | 53.43767 | 26433 ft | 411 kts | 282° |
| 2026-05-06 23:01 | 25.29236 | 53.40703 | 25946 ft | 410 kts | 282° |
| 2026-05-06 23:02 | 25.29911 | 53.37651 | 25454 ft | 408 kts | 282° |
| 2026-05-06 23:02 | 25.30583 | 53.34611 | 24969 ft | 406 kts | 282° |
| 2026-05-06 23:02 | 25.31251 | 53.31587 | 24476 ft | 404 kts | 282° |
| 2026-05-06 23:02 | 25.31916 | 53.28574 | 23985 ft | 403 kts | 282° |
| 2026-05-06 23:03 | 25.32578 | 53.25570 | 23495 ft | 402 kts | 282° |
| 2026-05-06 23:03 | 25.33238 | 53.22576 | 22946 ft | 400 kts | 282° |
| 2026-05-06 23:03 | 25.33896 | 53.19593 | 22432 ft | 399 kts | 282° |
| 2026-05-06 23:03 | 25.34394 | 53.16583 | 21989 ft | 402 kts | 274° |
| 2026-05-06 23:04 | 25.34354 | 53.13456 | 21772 ft | 412 kts | 264° |
| 2026-05-06 23:04 | 25.34017 | 53.10300 | 21591 ft | 415 kts | 261° |
| 2026-05-06 23:04 | 25.33551 | 53.07153 | 21434 ft | 414 kts | 259° |
| 2026-05-06 23:04 | 25.33023 | 53.04030 | 21302 ft | 413 kts | 258° |
| 2026-05-06 23:05 | 25.32472 | 53.00916 | 21169 ft | 413 kts | 258° |
| 2026-05-06 23:05 | 25.31922 | 52.97807 | 21034 ft | 412 kts | 258° |
| 2026-05-06 23:05 | 25.31380 | 52.94698 | 20916 ft | 411 kts | 258° |
| 2026-05-06 23:05 | 25.30852 | 52.91599 | 20765 ft | 410 kts | 258° |
| 2026-05-06 23:06 | 25.30328 | 52.88505 | 20647 ft | 410 kts | 258° |
| 2026-05-06 23:06 | 25.29808 | 52.85423 | 20507 ft | 409 kts | 258° |
| 2026-05-06 23:06 | 25.29375 | 52.82850 | 20401 ft | 409 kts | 258° |
| 2026-05-06 23:06 | 25.28857 | 52.79779 | 20268 ft | 408 kts | 258° |
| 2026-05-06 23:07 | 25.28339 | 52.76701 | 20133 ft | 407 kts | 258° |
| 2026-05-06 23:07 | 25.27820 | 52.73629 | 20011 ft | 406 kts | 258° |
| 2026-05-06 23:07 | 25.27273 | 52.70582 | 19871 ft | 404 kts | 255° |
| 2026-05-06 23:07 | 25.26280 | 52.67695 | 19727 ft | 402 kts | 241° |
| 2026-05-06 23:08 | 25.24813 | 52.65083 | 19367 ft | 399 kts | 235° |
| 2026-05-06 23:08 | 25.23242 | 52.62554 | 19042 ft | 399 kts | 234° |
| 2026-05-06 23:08 | 25.21666 | 52.60028 | 18735 ft | 400 kts | 235° |
| 2026-05-06 23:08 | 25.20093 | 52.57492 | 18412 ft | 399 kts | 235° |
| 2026-05-06 23:09 | 25.18532 | 52.54965 | 18102 ft | 398 kts | 235° |
| 2026-05-06 23:09 | 25.16976 | 52.52443 | 17771 ft | 397 kts | 234° |
| 2026-05-06 23:09 | 25.15423 | 52.49925 | 17450 ft | 397 kts | 235° |
| 2026-05-06 23:09 | 25.13871 | 52.47405 | 17141 ft | 397 kts | 235° |
| 2026-05-06 23:10 | 25.12266 | 52.44942 | 16868 ft | 395 kts | 229° |
| 2026-05-06 23:10 | 25.10263 | 52.42883 | 16617 ft | 393 kts | 217° |
| 2026-05-06 23:10 | 25.08069 | 52.41084 | 16378 ft | 393 kts | 215° |
| 2026-05-06 23:10 | 25.05852 | 52.39314 | 16131 ft | 393 kts | 215° |
| 2026-05-06 23:11 | 25.03643 | 52.37549 | 15863 ft | 389 kts | 215° |
| 2026-05-06 23:11 | 25.01477 | 52.35810 | 15549 ft | 380 kts | 215° |
| 2026-05-06 23:11 | 24.99386 | 52.34129 | 15399 ft | 364 kts | 216° |
| 2026-05-06 23:11 | 24.97380 | 52.32514 | 15272 ft | 350 kts | 216° |
| 2026-05-06 23:12 | 24.95447 | 52.30957 | 15062 ft | 339 kts | 215° |
| 2026-05-06 23:12 | 24.93580 | 52.29455 | 14902 ft | 327 kts | 215° |
| 2026-05-06 23:12 | 24.91838 | 52.27907 | 14681 ft | 318 kts | 223° |
| 2026-05-06 23:12 | 24.90468 | 52.26017 | 14341 ft | 314 kts | 240° |
| 2026-05-06 23:13 | 24.89648 | 52.23828 | 14133 ft | 307 kts | 257° |
| 2026-05-06 23:13 | 24.89320 | 52.21527 | 13851 ft | 303 kts | 266° |
| 2026-05-06 23:13 | 24.89154 | 52.19227 | 13534 ft | 301 kts | 267° |
| 2026-05-06 23:13 | 24.89005 | 52.16937 | 13208 ft | 298 kts | 267° |
| 2026-05-06 23:14 | 24.88848 | 52.14645 | 13006 ft | 305 kts | 267° |
| 2026-05-06 23:14 | 24.88685 | 52.12302 | 12681 ft | 308 kts | 266° |
| 2026-05-06 23:14 | 24.88659 | 52.09955 | 12272 ft | 304 kts | 279° |
| 2026-05-06 23:14 | 24.89342 | 52.07819 | 11952 ft | 293 kts | 306° |
| 2026-05-06 23:15 | 24.90738 | 52.06298 | 11826 ft | 288 kts | 331° |
| 2026-05-06 23:15 | 24.92535 | 52.05340 | 11737 ft | 288 kts | 340° |
| 2026-05-06 23:15 | 24.94403 | 52.04540 | 11619 ft | 288 kts | 342° |
| 2026-05-06 23:15 | 24.96265 | 52.03752 | 11516 ft | 285 kts | 342° |
| 2026-05-06 23:16 | 24.98114 | 52.02966 | 11397 ft | 286 kts | 340° |
| 2026-05-06 23:16 | 24.99950 | 52.02174 | 11290 ft | 285 kts | 340° |
| 2026-05-06 23:16 | 25.01796 | 52.01375 | 11057 ft | 285 kts | 340° |
| 2026-05-06 23:16 | 25.03644 | 52.00573 | 10990 ft | 286 kts | 340° |
| 2026-05-06 23:17 | 25.05491 | 51.99769 | 10968 ft | 284 kts | 341° |
| 2026-05-06 23:17 | 25.07297 | 51.98987 | 10827 ft | 274 kts | 339° |
| 2026-05-06 23:17 | 25.09056 | 51.98218 | 10603 ft | 271 kts | 340° |
| 2026-05-06 23:17 | 25.10807 | 51.97452 | 10368 ft | 271 kts | 340° |
| 2026-05-06 23:18 | 25.12548 | 51.96692 | 10139 ft | 269 kts | 339° |
| 2026-05-06 23:18 | 25.14290 | 51.95932 | 9914 ft | 268 kts | 340° |
| 2026-05-06 23:18 | 25.16020 | 51.95176 | 9680 ft | 267 kts | 339° |
| 2026-05-06 23:18 | 25.17752 | 51.94418 | 9434 ft | 268 kts | 339° |
| 2026-05-06 23:19 | 25.19480 | 51.93661 | 9188 ft | 266 kts | 339° |
| 2026-05-06 23:19 | 25.21194 | 51.92911 | 8941 ft | 264 kts | 339° |
| 2026-05-06 23:19 | 25.22903 | 51.92164 | 8693 ft | 264 kts | 340° |
| 2026-05-06 23:19 | 25.24597 | 51.91420 | 8458 ft | 261 kts | 339° |
| 2026-05-06 23:20 | 25.26273 | 51.90654 | 8214 ft | 262 kts | 335° |
| 2026-05-06 23:20 | 25.27674 | 51.89382 | 8005 ft | 264 kts | 308° |
| 2026-05-06 23:20 | 25.28396 | 51.87528 | 7791 ft | 266 kts | 279° |
| 2026-05-06 23:20 | 25.28266 | 51.85501 | 7538 ft | 268 kts | 253° |
| 2026-05-06 23:21 | 25.27304 | 51.83745 | 7259 ft | 271 kts | 225° |
| 2026-05-06 23:21 | 25.25719 | 51.82638 | 6977 ft | 271 kts | 200° |
| 2026-05-06 23:21 | 25.23916 | 51.82054 | 6697 ft | 270 kts | 193° |
| 2026-05-06 23:21 | 25.22079 | 51.81573 | 6425 ft | 272 kts | 193° |
| 2026-05-06 23:22 | 25.20237 | 51.81106 | 6211 ft | 271 kts | 193° |
| 2026-05-06 23:22 | 25.18410 | 51.80643 | 6013 ft | 268 kts | 192° |
| 2026-05-06 23:22 | 25.16598 | 51.80174 | 5835 ft | 267 kts | 192° |
| 2026-05-06 23:22 | 25.14793 | 51.79702 | 5639 ft | 265 kts | 193° |
| 2026-05-06 23:23 | 25.13033 | 51.79234 | 5439 ft | 256 kts | 192° |
| 2026-05-06 23:23 | 25.11337 | 51.78771 | 5247 ft | 247 kts | 193° |
| 2026-05-06 23:23 | 25.09703 | 51.78330 | 5065 ft | 237 kts | 193° |
| 2026-05-06 23:23 | 25.08135 | 51.77904 | 4916 ft | 229 kts | 192° |
| 2026-05-06 23:24 | 25.06622 | 51.77476 | 4742 ft | 221 kts | 192° |
| 2026-05-06 23:24 | 25.05199 | 51.76875 | 4615 ft | 219 kts | 208° |
| 2026-05-06 23:24 | 25.04007 | 51.75817 | 4588 ft | 225 kts | 228° |
| 2026-05-06 23:24 | 25.03289 | 51.74285 | 4502 ft | 222 kts | 256° |
| 2026-05-06 23:25 | 25.03152 | 51.72649 | 4365 ft | 210 kts | 273° |
| 2026-05-06 23:25 | 25.03362 | 51.71002 | 4120 ft | 223 kts | 285° |
| 2026-05-06 23:25 | 25.03897 | 51.69397 | 3867 ft | 222 kts | 302° |
| 2026-05-06 23:25 | 25.04944 | 51.68234 | 3666 ft | 208 kts | 330° |
| 2026-05-06 23:26 | 25.06237 | 51.67664 | 3502 ft | 195 kts | 349° |
| 2026-05-06 23:26 | 25.07552 | 51.67471 | 3393 ft | 183 kts | 356° |
| 2026-05-06 23:26 | 25.08770 | 51.67335 | 3352 ft | 172 kts | 352° |
| 2026-05-06 23:26 | 25.09933 | 51.67061 | 3222 ft | 170 kts | 348° |
| 2026-05-06 23:27 | 25.11073 | 51.66741 | 3014 ft | 168 kts | 345° |
| 2026-05-06 23:27 | 25.12191 | 51.66364 | 2795 ft | 167 kts | 343° |
| 2026-05-06 23:27 | 25.13289 | 51.65960 | 2642 ft | 165 kts | 342° |
| 2026-05-06 23:27 | 25.14350 | 51.65518 | 2401 ft | 162 kts | 339° |
| 2026-05-06 23:28 | 25.15374 | 51.65047 | 2204 ft | 156 kts | 338° |
| 2026-05-06 23:28 | 25.16353 | 51.64578 | 1927 ft | 152 kts | 336° |
| 2026-05-06 23:28 | 25.17303 | 51.64108 | 1710 ft | 146 kts | 338° |
| 2026-05-06 23:28 | 25.18214 | 51.63687 | 1530 ft | 138 kts | 340° |
| 2026-05-06 23:29 | 25.19104 | 51.63340 | 1340 ft | 135 kts | 342° |
| 2026-05-06 23:29 | 25.20005 | 51.62991 | 1190 ft | 139 kts | 340° |
| 2026-05-06 23:29 | 25.20916 | 51.62614 | 993 ft | 140 kts | 338° |
| 2026-05-06 23:29 | 25.21811 | 51.62209 | 799 ft | 138 kts | 340° |
| 2026-05-06 23:30 | 25.22706 | 51.61803 | 620 ft | 141 kts | 339° |
| 2026-05-06 23:30 | 25.23620 | 51.61420 | 425 ft | 141 kts | 338° |
| 2026-05-06 23:30 | 25.24523 | 51.61003 | 292 ft | 140 kts | 333° |
| 2026-05-06 23:30 | 25.25422 | 51.60591 | 114 ft | 140 kts | 338° |
| 2026-05-06 23:31 | 25.26308 | 51.60201 | 33 ft | 125 kts | 339° |
| 2026-05-06 23:31 | 25.26885 | 51.59949 | 31 ft | 53 kts | 338° |
| 2026-05-06 23:31 | 25.27065 | 51.59869 | 32 ft | 21 kts | 338° |
| 2026-05-06 23:31 | 25.27207 | 51.59826 | 32 ft | 21 kts | 353° |
| 2026-05-06 23:32 | 25.27356 | 51.59828 | 33 ft | 19 kts | 5° |
| 2026-05-06 23:32 | 25.27421 | 51.59862 | 34 ft | 10 kts | 60° |
| 2026-05-06 23:32 | 25.27398 | 51.59924 | 35 ft | 10 kts | 144° |
| 2026-05-06 23:32 | 25.27321 | 51.59960 | 35 ft | 14 kts | 159° |
| 2026-05-06 23:33 | 25.27222 | 51.60003 | 35 ft | 17 kts | 158° |
| 2026-05-06 23:33 | 25.27113 | 51.60052 | 34 ft | 14 kts | 158° |
| 2026-05-06 23:33 | 25.27027 | 51.60089 | 34 ft | 13 kts | 158° |
| 2026-05-06 23:33 | 25.26949 | 51.60125 | 34 ft | 5 kts | 144° |
| 2026-05-06 23:34 | 25.26944 | 51.60160 | 35 ft | 5 kts | 76° |
| 2026-05-06 23:34 | 25.26956 | 51.60206 | 35 ft | 7 kts | 89° |
| 2026-05-06 23:34 | 25.26938 | 51.60234 | 35 ft | 7 kts | 140° |
| 2026-05-06 23:34 | 25.26880 | 51.60262 | 35 ft | 11 kts | 157° |
| 2026-05-06 23:35 | 25.26804 | 51.60296 | 35 ft | 12 kts | 159° |
| 2026-05-06 23:35 | 25.26720 | 51.60331 | 35 ft | 14 kts | 160° |
| 2026-05-06 23:35 | 25.26657 | 51.60360 | 35 ft | 10 kts | 154° |
| 2026-05-06 23:35 | 25.26622 | 51.60422 | 36 ft | 11 kts | 83° |
| 2026-05-06 23:36 | 25.26653 | 51.60510 | 36 ft | 14 kts | 68° |
| 2026-05-06 23:36 | 25.26685 | 51.60615 | 36 ft | 14 kts | 86° |
| 2026-05-06 23:36 | 25.26661 | 51.60707 | 36 ft | 11 kts | 112° |
| 2026-05-06 23:36 | 25.26627 | 51.60797 | 36 ft | 14 kts | 113° |
| 2026-05-06 23:37 | 25.26597 | 51.60875 | 36 ft | 6 kts | 112° |
| 2026-05-06 23:37 | 25.26589 | 51.60895 | 36 ft | 3 kts | 114° |
| 2026-05-06 23:37 | 25.26560 | 51.60937 | 36 ft | 10 kts | 141° |
| 2026-05-06 23:37 | 25.26489 | 51.60975 | 36 ft | 11 kts | 157° |
| 2026-05-06 23:38 | 25.26445 | 51.60998 | 36 ft | 3 kts | 146° |
| 2026-05-06 23:38 | 25.26439 | 51.61025 | 36 ft | 5 kts | 90° |
| 2026-05-06 23:38 | 25.26447 | 51.61061 | 36 ft | 4 kts | 70° |
| 2026-05-06 23:38 | 25.26448 | 51.61064 | 36 ft | 0 kts | 70° |
| 2026-05-06 23:39 | 25.26449 | 51.61067 | 36 ft | 0 kts | 70° |
| 2026-05-06 23:39 | 25.26452 | 51.61077 | 36 ft | 2 kts | 71° |
| 2026-05-06 23:39 | 25.26457 | 51.61091 | 36 ft | 1 kts | 68° |
| 2026-05-06 23:39 | 25.26459 | 51.61096 | 36 ft | 0 kts | 68° |